Time;durP1;ratioP1;P1;durP2;ratioP2;P2;SDS_P1;SDS_P2;PMS_P1;PMS_P2;Temp;Humidity;BMP_temperature;BMP_pressure;BME280_temperature;BME280_humidity;BME280_pressure;Samples;Min_cycle;Max_cycle;Signal;HPM_P1;HPM_P2
2021/05/28 00:00:19;;;;;;;4.05;1.88;;;9.20;86.30;;;;;;5072197;28;20028;-75
2021/05/28 00:02:45;;;;;;;6.80;2.13;;;9.10;86.30;;;;;;5072202;28;20380;-75
2021/05/28 00:05:11;;;;;;;3.03;1.75;;;9.10;86.50;;;;;;5072207;28;20129;-75
2021/05/28 00:07:37;;;;;;;3.42;1.88;;;9.10;86.50;;;;;;5071801;28;20071;-75
2021/05/28 00:10:04;;;;;;;3.92;1.77;;;9.10;86.60;;;;;;5072263;28;20024;-74
2021/05/28 00:12:30;;;;;;;2.70;1.60;;;9.10;86.60;;;;;;5073365;28;20029;-75
2021/05/28 00:14:56;;;;;;;4.57;2.03;;;9.10;86.70;;;;;;5072037;28;20112;-75
2021/05/28 00:17:22;;;;;;;3.97;2.20;;;9.10;86.80;;;;;;5073222;28;20051;-75
2021/05/28 00:19:48;;;;;;;4.57;2.30;;;9.00;86.80;;;;;;5073309;28;20384;-74
2021/05/28 00:22:14;;;;;;;4.43;2.05;;;9.00;86.80;;;;;;5072000;28;20111;-75
2021/05/28 00:24:39;;;;;;;3.50;2.10;;;9.00;86.90;;;;;;5071929;28;20528;-74
2021/05/28 00:27:06;;;;;;;5.07;2.70;;;9.00;87.00;;;;;;5071802;28;20107;-74
2021/05/28 00:29:31;;;;;;;6.13;2.17;;;9.00;87.00;;;;;;5073042;28;20024;-74
2021/05/28 00:31:57;;;;;;;3.45;2.40;;;9.00;87.10;;;;;;5072921;28;20024;-74
2021/05/28 00:34:23;;;;;;;5.40;2.63;;;9.00;87.20;;;;;;5073190;28;20380;-74
2021/05/28 00:36:49;;;;;;;4.68;2.63;;;8.90;87.20;;;;;;5071556;28;20027;-74
2021/05/28 00:39:15;;;;;;;7.85;2.50;;;9.00;87.30;;;;;;5071592;28;20021;-74
2021/05/28 00:41:41;;;;;;;5.65;2.58;;;9.00;87.30;;;;;;5071536;28;20016;-74
2021/05/28 00:44:06;;;;;;;5.85;2.90;;;9.00;87.30;;;;;;5072986;28;20028;-74
2021/05/28 00:46:32;;;;;;;9.65;3.80;;;9.00;87.40;;;;;;5072866;28;20103;-75
2021/05/28 00:48:58;;;;;;;4.35;2.47;;;9.00;87.40;;;;;;5071791;28;20024;-74
2021/05/28 00:51:24;;;;;;;5.13;2.85;;;9.00;87.50;;;;;;5071405;28;20025;-74
2021/05/28 00:53:50;;;;;;;4.82;2.85;;;9.00;87.50;;;;;;5071482;28;20024;-74
2021/05/28 00:56:16;;;;;;;5.70;2.70;;;9.00;87.50;;;;;;5072565;28;20028;-73
2021/05/28 00:58:42;;;;;;;5.63;2.60;;;9.00;87.50;;;;;;5072355;28;20093;-73
2021/05/28 01:01:09;;;;;;;6.28;2.42;;;8.90;87.50;;;;;;5071264;28;20016;-74
2021/05/28 01:03:35;;;;;;;8.32;3.65;;;8.90;87.60;;;;;;5072988;28;20185;-74
2021/05/28 01:06:01;;;;;;;5.03;2.92;;;8.90;87.50;;;;;;5072669;28;20046;-74
2021/05/28 01:08:26;;;;;;;4.82;2.75;;;8.90;87.60;;;;;;5072780;28;20099;-74
2021/05/28 01:10:52;;;;;;;5.20;2.83;;;8.90;87.60;;;;;;5071365;28;20035;-74
2021/05/28 01:13:18;;;;;;;5.40;2.75;;;8.90;87.60;;;;;;5072469;28;20034;-73
2021/05/28 01:15:43;;;;;;;4.80;2.72;;;8.90;87.60;;;;;;5071988;28;20090;-74
2021/05/28 01:18:09;;;;;;;4.60;3.08;;;8.80;87.60;;;;;;5071153;28;20036;-73
2021/05/28 01:20:36;;;;;;;4.22;2.70;;;8.80;87.60;;;;;;5076599;28;20025;-73
2021/05/28 01:23:03;;;;;;;5.60;2.55;;;8.80;87.70;;;;;;5077104;28;20025;-73
2021/05/28 01:25:30;;;;;;;6.20;2.90;;;8.80;87.70;;;;;;5075266;28;20024;-74
2021/05/28 01:27:56;;;;;;;5.10;3.13;;;8.80;87.80;;;;;;5076684;28;20054;-73
2021/05/28 01:30:25;;;;;;;6.05;3.35;;;8.80;87.80;;;;;;5075105;28;20025;-73
2021/05/28 01:32:51;;;;;;;7.72;3.35;;;8.90;87.80;;;;;;5076444;28;20415;-74
2021/05/28 01:35:17;;;;;;;6.28;3.20;;;8.90;87.80;;;;;;5074953;28;20134;-73
2021/05/28 01:37:43;;;;;;;5.68;3.08;;;9.00;87.70;;;;;;5074936;28;20074;-74
2021/05/28 01:40:10;;;;;;;6.38;4.10;;;9.10;87.60;;;;;;5076281;28;20036;-75
2021/05/28 01:42:36;;;;;;;5.97;3.63;;;9.20;87.50;;;;;;5076238;28;20039;-74
2021/05/28 01:45:06;;;;;;;6.30;4.30;;;9.20;87.90;;;;;;5076435;28;20028;-74
2021/05/28 01:47:32;;;;;;;11.40;4.07;;;9.30;87.20;;;;;;5076251;28;20437;-74
2021/05/28 01:49:58;;;;;;;9.70;4.65;;;9.30;87.10;;;;;;5074824;28;20115;-73
2021/05/28 01:52:25;;;;;;;5.32;3.63;;;9.40;87.00;;;;;;5076052;28;20029;-74
2021/05/28 01:54:52;;;;;;;13.77;4.18;;;9.30;87.00;;;;;;5076037;28;20037;-74
2021/05/28 01:57:18;;;;;;;8.45;4.00;;;9.30;87.00;;;;;;5074549;28;20036;-73
2021/05/28 01:59:45;;;;;;;11.70;4.15;;;9.30;87.00;;;;;;5074545;28;20033;-74
2021/05/28 02:02:13;;;;;;;15.63;3.95;;;9.20;87.00;;;;;;5074548;28;20028;-73
2021/05/28 02:04:40;;;;;;;10.98;3.83;;;9.20;87.10;;;;;;5076147;28;20025;-74
2021/05/28 02:07:06;;;;;;;9.27;4.15;;;9.10;87.20;;;;;;5075843;28;20393;-73
2021/05/28 02:09:32;;;;;;;5.18;4.38;;;9.10;87.30;;;;;;5075788;28;20028;-73
2021/05/28 02:12:00;;;;;;;8.75;4.07;;;9.10;87.40;;;;;;5075671;28;20033;-74
2021/05/28 02:14:29;;;;;;;6.97;3.75;;;9.10;87.40;;;;;;5074405;28;20033;-74
2021/05/28 02:16:55;;;;;;;7.15;4.28;;;9.10;87.40;;;;;;5075652;28;20037;-74
2021/05/28 02:19:21;;;;;;;8.70;4.32;;;9.10;87.40;;;;;;5075369;28;20025;-74
2021/05/28 02:21:48;;;;;;;21.70;5.07;;;9.10;87.40;;;;;;5075507;28;20128;-74
2021/05/28 02:24:15;;;;;;;8.27;4.93;;;9.10;87.40;;;;;;5075522;28;20044;-74
2021/05/28 02:26:45;;;;;;;13.68;4.88;;;9.10;87.40;;;;;;5076052;28;20040;-74
2021/05/28 02:29:12;;;;;;;8.95;5.05;;;9.10;87.50;;;;;;5073753;28;20031;-74
2021/05/28 02:31:38;;;;;;;6.72;4.60;;;9.10;87.50;;;;;;5075346;28;20036;-73
2021/05/28 02:34:04;;;;;;;6.90;4.40;;;9.10;87.50;;;;;;5075547;28;20035;-73
2021/05/28 02:36:30;;;;;;;7.60;4.47;;;9.10;87.60;;;;;;5075275;28;20044;-74
2021/05/28 02:38:56;;;;;;;8.32;3.97;;;9.10;87.50;;;;;;5073764;28;20088;-73
2021/05/28 02:41:22;;;;;;;10.23;4.50;;;9.10;87.50;;;;;;5073899;28;20024;-73
2021/05/28 02:43:47;;;;;;;6.63;4.88;;;9.10;87.50;;;;;;5075341;28;20365;-74
2021/05/28 02:46:13;;;;;;;8.93;4.65;;;9.10;87.60;;;;;;5073661;28;20039;-74
2021/05/28 02:48:39;;;;;;;6.35;4.68;;;9.10;87.70;;;;;;5073708;28;20029;-74
2021/05/28 02:51:05;;;;;;;5.35;4.20;;;9.00;87.60;;;;;;5075106;28;20069;-73
2021/05/28 02:53:34;;;;;;;5.65;4.68;;;9.10;87.70;;;;;;5074926;28;20480;-74
2021/05/28 02:56:01;;;;;;;8.13;4.68;;;9.10;87.70;;;;;;5074984;28;20028;-74
2021/05/28 02:58:27;;;;;;;6.10;4.57;;;9.10;87.60;;;;;;5073240;28;20068;-74
2021/05/28 03:00:52;;;;;;;6.82;4.75;;;9.20;87.70;;;;;;5074794;28;20074;-74
2021/05/28 03:03:18;;;;;;;6.22;4.70;;;9.20;88.20;;;;;;5073512;28;20383;-74
2021/05/28 03:05:44;;;;;;;5.85;4.35;;;9.20;87.60;;;;;;5074947;28;20557;-74
2021/05/28 03:08:09;;;;;;;5.97;4.80;;;9.30;87.50;;;;;;5073462;28;20074;-74
2021/05/28 03:10:35;;;;;;;7.35;4.20;;;9.30;87.50;;;;;;5073279;28;20082;-74
2021/05/28 03:13:01;;;;;;;6.68;4.63;;;9.40;87.40;;;;;;5074464;28;20384;-74
2021/05/28 03:15:26;;;;;;;4.95;4.43;;;9.30;87.30;;;;;;5074487;28;20046;-74
2021/05/28 03:17:53;;;;;;;5.50;4.32;;;9.30;87.30;;;;;;5074858;28;20472;-74
2021/05/28 03:20:34;;;;;;;7.45;4.65;;;9.30;87.20;;;;;;5074287;28;20100;-74
2021/05/28 03:23:00;;;;;;;6.70;4.50;;;9.30;87.30;;;;;;5074301;28;20020;-74
2021/05/28 03:25:26;;;;;;;7.15;4.57;;;9.20;87.30;;;;;;5074067;28;20024;-74
2021/05/28 03:27:53;;;;;;;5.50;4.18;;;9.20;87.40;;;;;;5074216;28;20477;-74
2021/05/28 03:30:19;;;;;;;7.43;4.65;;;9.30;87.40;;;;;;5074539;28;20078;-74
2021/05/28 03:32:45;;;;;;;5.57;4.20;;;9.30;87.40;;;;;;5072834;28;20020;-74
2021/05/28 03:35:10;;;;;;;5.32;4.63;;;9.30;87.40;;;;;;5074049;28;20107;-74
2021/05/28 03:37:39;;;;;;;7.00;4.70;;;9.40;87.50;;;;;;5072518;28;20363;-74
2021/05/28 03:40:06;;;;;;;6.30;4.72;;;9.40;87.40;;;;;;5074041;28;20025;-74
2021/05/28 03:42:31;;;;;;;7.88;4.55;;;9.40;87.40;;;;;;5073007;28;20490;-74
2021/05/28 03:44:57;;;;;;;7.38;4.63;;;9.40;87.30;;;;;;5072547;28;20107;-74
2021/05/28 03:47:23;;;;;;;7.63;4.43;;;9.40;87.30;;;;;;5073767;28;20067;-73
2021/05/28 03:49:48;;;;;;;5.43;4.60;;;9.40;87.30;;;;;;5072833;28;20063;-73
2021/05/28 03:52:14;;;;;;;9.80;4.85;;;9.50;87.30;;;;;;5072277;28;20027;-73
2021/05/28 03:54:40;;;;;;;6.05;4.82;;;9.50;87.20;;;;;;5072190;28;20063;-73
2021/05/28 03:57:06;;;;;;;11.80;4.65;;;9.50;87.20;;;;;;5074078;28;20040;-73
2021/05/28 03:59:32;;;;;;;10.07;5.25;;;9.50;87.20;;;;;;5072074;28;20420;-73
2021/05/28 04:01:58;;;;;;;7.57;4.90;;;9.50;87.00;;;;;;5073361;28;20494;-73
2021/05/28 04:04:24;;;;;;;6.57;4.85;;;9.60;87.10;;;;;;5071997;28;20021;-73
2021/05/28 04:06:50;;;;;;;8.50;4.82;;;9.60;87.10;;;;;;5072051;28;20097;-73
2021/05/28 04:09:15;;;;;;;8.63;5.18;;;9.60;87.10;;;;;;5073592;28;20025;-73
2021/05/28 04:11:41;;;;;;;8.57;5.40;;;9.70;87.00;;;;;;5073408;28;20036;-73
2021/05/28 04:14:07;;;;;;;7.13;4.70;;;9.70;87.00;;;;;;5073154;28;20039;-73
2021/05/28 04:16:32;;;;;;;7.80;5.32;;;9.70;86.80;;;;;;5071868;28;20456;-74
2021/05/28 04:18:58;;;;;;;7.60;5.57;;;9.80;86.80;;;;;;5071658;28;20035;-74
2021/05/28 04:21:24;;;;;;;7.85;5.10;;;9.80;86.80;;;;;;5072979;28;20024;-73
2021/05/28 04:23:50;;;;;;;10.05;4.97;;;9.80;87.30;;;;;;5073121;28;20021;-73
2021/05/28 04:26:15;;;;;;;10.02;5.80;;;9.80;86.70;;;;;;5073508;28;20025;-73
2021/05/28 04:28:41;;;;;;;9.00;5.80;;;9.90;86.70;;;;;;5073066;28;20024;-74
2021/05/28 04:31:07;;;;;;;8.85;5.43;;;9.90;86.60;;;;;;5072938;28;20090;-74
2021/05/28 04:33:32;;;;;;;15.45;5.40;;;9.90;86.50;;;;;;5071651;28;20476;-74
2021/05/28 04:35:58;;;;;;;15.60;5.32;;;9.90;87.10;;;;;;5071612;28;20032;-74
2021/05/28 04:38:23;;;;;;;7.80;5.35;;;9.90;86.40;;;;;;5072756;28;20060;-73
2021/05/28 04:40:51;;;;;;;8.85;5.65;;;9.90;86.50;;;;;;5071454;28;20336;-73
2021/05/28 04:43:17;;;;;;;11.13;5.10;;;9.90;86.50;;;;;;5071378;28;20073;-73
2021/05/28 04:45:43;;;;;;;14.02;4.90;;;9.90;86.50;;;;;;5072746;28;20024;-73
2021/05/28 04:48:09;;;;;;;11.05;4.47;;;9.90;86.50;;;;;;5071482;28;20104;-74
2021/05/28 04:50:36;;;;;;;6.95;4.55;;;9.80;86.40;;;;;;5072825;28;20028;-73
2021/05/28 04:53:03;;;;;;;6.45;4.70;;;9.80;86.50;;;;;;5072575;28;20031;-73
2021/05/28 04:55:30;;;;;;;6.30;4.55;;;9.80;86.60;;;;;;5072621;28;20396;-73
2021/05/28 04:57:56;;;;;;;6.22;4.75;;;9.80;86.70;;;;;;5071343;28;20090;-73
2021/05/28 05:00:23;;;;;;;7.60;4.57;;;9.80;86.70;;;;;;5072458;28;20484;-74
2021/05/28 05:02:49;;;;;;;7.13;4.63;;;9.90;86.70;;;;;;5072956;28;20020;-74
2021/05/28 05:05:16;;;;;;;10.40;4.75;;;10.00;86.60;;;;;;5072670;28;20025;-74
2021/05/28 05:07:42;;;;;;;6.65;4.35;;;10.00;86.40;;;;;;5072804;28;20025;-73
2021/05/28 05:10:09;;;;;;;5.30;4.45;;;10.00;86.30;;;;;;5072669;28;20432;-73
2021/05/28 05:12:35;;;;;;;5.40;3.92;;;10.10;86.40;;;;;;5072715;28;20456;-73
2021/05/28 05:15:01;;;;;;;6.65;4.32;;;10.10;86.20;;;;;;5072643;28;20108;-74
2021/05/28 05:17:27;;;;;;;11.98;4.07;;;10.10;86.10;;;;;;5072449;28;20083;-74
2021/05/28 05:19:53;;;;;;;5.50;4.43;;;10.10;86.20;;;;;;5071185;28;20048;-73
2021/05/28 05:22:18;;;;;;;6.40;4.25;;;10.00;86.20;;;;;;5071178;28;20029;-74
2021/05/28 05:24:44;;;;;;;6.47;3.78;;;10.10;86.30;;;;;;5071239;28;20094;-74
2021/05/28 05:27:10;;;;;;;9.95;4.75;;;10.10;86.30;;;;;;5072982;28;20519;-74
2021/05/28 05:29:35;;;;;;;5.95;4.35;;;10.20;86.10;;;;;;5071176;28;20123;-74
2021/05/28 05:32:01;;;;;;;6.32;3.97;;;10.30;86.00;;;;;;5072485;28;20423;-74
2021/05/28 05:34:27;;;;;;;4.60;3.60;;;10.30;85.90;;;;;;5072418;28;20506;-73
2021/05/28 05:36:53;;;;;;;6.55;4.05;;;10.30;85.80;;;;;;5071124;28;20107;-74
2021/05/28 05:39:21;;;;;;;5.93;4.13;;;10.30;85.70;;;;;;5070931;28;20027;-74
2021/05/28 05:41:47;;;;;;;5.30;4.00;;;10.30;85.60;;;;;;5071004;28;20032;-74
2021/05/28 05:44:13;;;;;;;4.80;4.20;;;10.30;85.50;;;;;;5071017;28;20391;-74
2021/05/28 05:46:39;;;;;;;5.38;4.32;;;10.40;85.60;;;;;;5071685;28;20059;-74
2021/05/28 05:49:05;;;;;;;5.22;4.07;;;10.40;85.50;;;;;;5072661;28;20051;-74
2021/05/28 05:51:31;;;;;;;6.53;4.20;;;10.40;85.30;;;;;;5072271;28;20025;-74
2021/05/28 05:53:56;;;;;;;4.93;4.07;;;10.50;85.40;;;;;;5070925;28;20031;-74
2021/05/28 05:56:22;;;;;;;5.00;4.25;;;10.50;85.30;;;;;;5070741;28;20060;-74
2021/05/28 05:58:48;;;;;;;4.93;4.40;;;10.50;85.30;;;;;;5071754;28;20068;-74
2021/05/28 06:01:13;;;;;;;5.07;4.15;;;10.50;85.10;;;;;;5072084;28;20029;-74
2021/05/28 06:03:39;;;;;;;6.00;4.70;;;10.60;85.10;;;;;;5072451;28;20021;-74
2021/05/28 06:06:05;;;;;;;4.93;4.30;;;10.60;85.00;;;;;;5075008;28;20365;-74
2021/05/28 06:08:30;;;;;;;5.43;4.30;;;10.70;85.00;;;;;;5076254;28;20024;-74
2021/05/28 06:10:56;;;;;;;4.38;3.92;;;10.70;84.90;;;;;;5074352;28;20113;-74
2021/05/28 06:13:22;;;;;;;4.35;3.80;;;10.70;84.80;;;;;;5075518;28;20032;-74
2021/05/28 06:15:47;;;;;;;5.10;4.40;;;10.80;84.80;;;;;;5074204;28;20024;-74
2021/05/28 06:18:13;;;;;;;4.65;4.22;;;10.90;84.70;;;;;;5075825;28;20104;-74
2021/05/28 06:20:38;;;;;;;4.75;4.22;;;11.00;84.60;;;;;;5074342;28;20106;-73
2021/05/28 06:23:04;;;;;;;5.18;4.15;;;11.10;84.40;;;;;;5075618;28;20468;-74
2021/05/28 06:25:30;;;;;;;5.25;4.68;;;11.30;84.20;;;;;;5074124;28;20063;-74
2021/05/28 06:27:56;;;;;;;4.95;4.45;;;11.40;84.00;;;;;;5074329;28;20024;-74
2021/05/28 06:30:22;;;;;;;5.13;4.00;;;11.50;83.80;;;;;;5075309;28;20127;-74
2021/05/28 06:32:47;;;;;;;4.68;4.18;;;11.60;83.60;;;;;;5075341;28;20029;-74
2021/05/28 06:35:13;;;;;;;5.03;4.53;;;11.70;83.30;;;;;;5073862;28;20051;-74
2021/05/28 06:37:39;;;;;;;5.55;4.90;;;11.60;83.00;;;;;;5073773;28;20025;-74
2021/05/28 06:40:06;;;;;;;4.97;4.47;;;11.60;82.90;;;;;;5073733;28;20506;-74
2021/05/28 06:42:33;;;;;;;4.68;4.28;;;11.50;83.10;;;;;;5073643;28;20077;-74
2021/05/28 06:44:59;;;;;;;5.18;4.47;;;11.60;83.20;;;;;;5073849;28;20021;-74
2021/05/28 06:47:25;;;;;;;4.35;3.95;;;11.60;83.00;;;;;;5075185;28;20036;-74
2021/05/28 06:49:52;;;;;;;4.95;4.32;;;11.60;83.00;;;;;;5075079;28;20384;-74
2021/05/28 06:52:18;;;;;;;6.32;4.72;;;11.70;82.90;;;;;;5073668;28;20024;-74
2021/05/28 06:54:44;;;;;;;5.10;4.40;;;11.80;82.70;;;;;;5073667;28;20029;-74
2021/05/28 06:57:09;;;;;;;5.20;4.60;;;11.80;82.60;;;;;;5074919;28;20047;-74
2021/05/28 06:59:35;;;;;;;5.18;4.50;;;11.90;82.50;;;;;;5073482;28;20515;-74
2021/05/28 07:02:01;;;;;;;6.30;4.70;;;11.90;82.20;;;;;;5073423;28;20020;-73
2021/05/28 07:04:26;;;;;;;5.10;4.50;;;11.90;82.10;;;;;;5074651;28;20407;-75
2021/05/28 07:06:52;;;;;;;5.32;4.25;;;11.80;82.30;;;;;;5073450;28;20108;-74
2021/05/28 07:09:18;;;;;;;5.45;4.75;;;11.80;82.30;;;;;;5074589;28;20074;-74
2021/05/28 07:11:43;;;;;;;5.90;5.25;;;11.80;82.30;;;;;;5073340;28;20024;-74
2021/05/28 07:14:09;;;;;;;5.57;4.47;;;11.90;82.40;;;;;;5073246;28;20032;-74
2021/05/28 07:16:35;;;;;;;5.18;4.68;;;11.90;82.40;;;;;;5074499;28;20097;-74
2021/05/28 07:19:01;;;;;;;5.65;4.53;;;11.90;82.40;;;;;;5074380;28;20020;-74
2021/05/28 07:21:27;;;;;;;5.30;4.47;;;11.80;82.30;;;;;;5074359;28;20054;-74
2021/05/28 07:23:53;;;;;;;4.65;4.20;;;11.80;82.30;;;;;;5074390;28;20031;-74
2021/05/28 07:26:19;;;;;;;5.43;4.50;;;11.80;82.40;;;;;;5074569;28;20024;-75
2021/05/28 07:28:45;;;;;;;4.45;4.05;;;11.80;82.50;;;;;;5074590;28;20134;-74
2021/05/28 07:31:11;;;;;;;4.47;4.07;;;11.90;82.50;;;;;;5072972;28;20407;-74
2021/05/28 07:33:38;;;;;;;4.93;4.20;;;11.90;82.30;;;;;;5074256;28;20029;-74
2021/05/28 07:36:05;;;;;;;4.57;4.18;;;11.90;82.30;;;;;;5072797;28;20039;-74
2021/05/28 07:38:31;;;;;;;5.68;4.70;;;12.00;82.20;;;;;;5072613;28;20029;-74
2021/05/28 07:40:57;;;;;;;4.50;3.78;;;12.10;82.10;;;;;;5073833;28;20028;-74
2021/05/28 07:43:22;;;;;;;4.70;4.25;;;12.20;82.10;;;;;;5072514;28;20025;-73
2021/05/28 07:45:51;;;;;;;5.32;4.72;;;12.20;81.90;;;;;;5074271;28;20025;-74
2021/05/28 07:48:18;;;;;;;5.63;4.45;;;12.20;81.80;;;;;;5073786;28;20028;-75
2021/05/28 07:50:45;;;;;;;5.18;4.68;;;12.30;81.60;;;;;;5072382;28;20127;-74
2021/05/28 07:53:19;;;;;;;5.43;4.45;;;12.40;81.50;;;;;;5073702;28;20090;-75
2021/05/28 07:55:45;;;;;;;5.35;4.75;;;12.50;81.40;;;;;;5072277;28;20086;-75
2021/05/28 07:58:11;;;;;;;5.40;3.90;;;12.50;81.20;;;;;;5073414;28;20028;-74
2021/05/28 08:00:37;;;;;;;4.78;4.28;;;12.60;81.20;;;;;;5073272;28;20040;-74
2021/05/28 08:03:03;;;;;;;6.55;4.85;;;12.70;81.10;;;;;;5072261;28;20028;-74
2021/05/28 08:05:29;;;;;;;6.25;5.28;;;12.70;80.90;;;;;;5072073;28;20155;-74
2021/05/28 08:07:55;;;;;;;6.28;5.10;;;12.80;80.80;;;;;;5073588;28;20460;-75
2021/05/28 08:10:22;;;;;;;7.85;5.80;;;12.80;80.70;;;;;;5073423;28;20028;-75
2021/05/28 08:12:50;;;;;;;7.13;5.75;;;12.80;80.60;;;;;;5072438;28;20024;-75
2021/05/28 08:15:16;;;;;;;6.95;5.53;;;12.80;80.60;;;;;;5073387;28;20036;-74
2021/05/28 08:17:42;;;;;;;7.35;5.35;;;12.80;80.40;;;;;;5072428;28;20028;-74
2021/05/28 08:20:08;;;;;;;6.43;5.10;;;12.90;80.40;;;;;;5073669;28;20419;-74
2021/05/28 08:22:34;;;;;;;5.60;4.40;;;12.90;80.20;;;;;;5071931;28;20132;-74
2021/05/28 08:24:59;;;;;;;4.80;4.05;;;12.90;80.10;;;;;;5073205;28;20052;-75
2021/05/28 08:27:25;;;;;;;6.97;4.82;;;13.00;79.80;;;;;;5072895;28;20028;-75
2021/05/28 08:29:51;;;;;;;6.75;4.45;;;13.10;79.50;;;;;;5072107;28;20415;-75
2021/05/28 08:32:16;;;;;;;5.35;4.75;;;13.30;79.40;;;;;;5071784;28;20109;-74
2021/05/28 08:34:42;;;;;;;5.15;4.40;;;13.30;79.30;;;;;;5072084;28;20092;-74
2021/05/28 08:37:08;;;;;;;5.18;4.22;;;13.40;79.20;;;;;;5073375;28;20034;-75
2021/05/28 08:39:33;;;;;;;5.00;4.07;;;13.40;79.00;;;;;;5071987;28;20029;-74
2021/05/28 08:45:41;;;;;;;4.25;3.85;;;13.70;78.80;;;;;;5073596;28;20467;-77
2021/05/28 08:48:09;;;;;;;6.45;3.88;;;13.70;78.50;;;;;;5071777;28;20025;-74
2021/05/28 08:50:36;;;;;;;4.53;4.03;;;13.80;78.40;;;;;;5071628;28;20493;-74
2021/05/28 08:53:07;;;;;;;3.88;3.30;;;13.80;78.30;;;;;;5072158;28;20029;-75
2021/05/28 08:55:34;;;;;;;5.80;3.80;;;13.90;78.10;;;;;;5071656;28;20024;-75
2021/05/28 08:58:05;;;;;;;5.78;3.97;;;14.00;78.00;;;;;;5071531;28;20033;-75
2021/05/28 09:00:30;;;;;;;4.20;3.80;;;14.00;77.80;;;;;;5071509;28;20094;-74
2021/05/28 09:03:15;;;;;;;4.40;3.88;;;14.10;77.70;;;;;;5071557;28;20024;-74
2021/05/28 09:05:41;;;;;;;5.18;4.15;;;14.20;77.50;;;;;;5071514;28;20021;-74
2021/05/28 09:08:07;;;;;;;4.82;3.95;;;14.20;76.90;;;;;;5071566;28;20070;-74
2021/05/28 09:10:32;;;;;;;5.53;4.03;;;14.20;76.40;;;;;;5072973;28;20472;-74
2021/05/28 09:13:20;;;;;;;5.00;3.90;;;14.30;76.50;;;;;;5071374;28;20024;-74
2021/05/28 09:16:04;;;;;;;5.55;4.15;;;14.40;76.50;;;;;;5072822;28;20025;-74
2021/05/28 09:18:40;;;;;;;4.15;3.72;;;14.50;76.20;;;;;;5072793;28;20020;-74
2021/05/28 09:21:06;;;;;;;4.82;4.05;;;14.60;75.90;;;;;;5071522;28;20025;-74
2021/05/28 09:23:34;;;;;;;6.57;4.55;;;14.60;75.80;;;;;;5072855;28;20100;-74
2021/05/28 09:26:05;;;;;;;4.45;3.60;;;14.70;75.60;;;;;;5072690;28;20472;-74
2021/05/28 09:28:41;;;;;;;3.35;2.72;;;14.70;75.40;;;;;;5071487;28;20029;-75
2021/05/28 09:31:09;;;;;;;3.88;3.33;;;14.90;75.40;;;;;;5071402;28;20093;-75
2021/05/28 09:33:41;;;;;;;4.18;3.47;;;14.90;75.10;;;;;;5072718;28;20600;-74
2021/05/28 09:36:12;;;;;;;3.80;2.95;;;15.10;74.90;;;;;;5071486;28;20227;-74
2021/05/28 09:38:39;;;;;;;3.78;3.33;;;15.20;74.70;;;;;;5071181;28;20148;-74
2021/05/28 09:41:06;;;;;;;3.40;3.10;;;15.30;74.50;;;;;;5075607;28;20025;-74
2021/05/28 09:43:33;;;;;;;3.80;2.78;;;15.30;74.30;;;;;;5076345;28;20023;-75
2021/05/28 09:46:00;;;;;;;4.18;3.40;;;15.40;74.20;;;;;;5074952;28;20031;-74
2021/05/28 09:48:28;;;;;;;3.03;2.30;;;15.60;74.00;;;;;;5076424;28;20376;-75
2021/05/28 09:50:59;;;;;;;3.97;3.15;;;15.60;73.70;;;;;;5074860;28;20017;-74
2021/05/28 09:53:42;;;;;;;5.70;3.10;;;15.70;73.00;;;;;;5074929;28;20047;-74
2021/05/28 09:56:34;;;;;;;4.97;2.67;;;15.70;72.20;;;;;;5076203;28;20070;-74
2021/05/28 09:59:01;;;;;;;3.67;2.00;;;15.80;72.00;;;;;;5074426;28;20290;-74
2021/05/28 10:01:30;;;;;;;1.73;1.63;;;15.80;71.90;;;;;;5074897;28;20032;-74
2021/05/28 10:04:07;;;;;;;2.22;1.90;;;15.90;71.40;;;;;;5074476;28;20499;-74
2021/05/28 10:06:39;;;;;;;1.83;1.67;;;16.00;71.30;;;;;;5075750;28;20483;-74
2021/05/28 10:09:10;;;;;;;3.03;2.20;;;16.10;71.00;;;;;;5074467;28;20032;-74
2021/05/28 10:11:37;;;;;;;2.40;2.10;;;16.20;70.40;;;;;;5076104;28;20035;-74
2021/05/28 10:14:04;;;;;;;1.67;1.58;;;16.20;69.70;;;;;;5075675;28;20029;-74
2021/05/28 10:16:30;;;;;;;2.08;1.52;;;16.30;69.60;;;;;;5074582;28;20071;-74
2021/05/28 10:18:57;;;;;;;3.33;1.90;;;16.30;69.20;;;;;;5074312;28;20028;-74
2021/05/28 10:21:24;;;;;;;3.00;1.70;;;16.40;68.60;;;;;;5074388;28;20021;-74
2021/05/28 10:23:50;;;;;;;2.28;2.08;;;16.40;68.40;;;;;;5075918;28;20376;-74
2021/05/28 10:26:25;;;;;;;3.28;2.22;;;16.50;68.20;;;;;;5075638;28;20082;-74
2021/05/28 10:28:51;;;;;;;2.92;2.08;;;16.60;68.10;;;;;;5075478;28;20033;-74
2021/05/28 10:31:17;;;;;;;1.75;1.65;;;16.70;68.40;;;;;;5075670;28;20039;-74
2021/05/28 10:33:49;;;;;;;2.13;1.75;;;16.70;67.50;;;;;;5074116;28;20090;-74
2021/05/28 10:36:42;;;;;;;2.00;1.80;;;16.80;66.60;;;;;;5075435;28;20027;-74
2021/05/28 10:39:13;;;;;;;2.08;1.77;;;16.90;66.20;;;;;;5075297;28;20033;-73
2021/05/28 10:41:52;;;;;;;2.10;1.90;;;16.90;66.30;;;;;;5075329;28;20062;-73
2021/05/28 10:44:21;;;;;;;3.60;1.60;;;16.90;65.70;;;;;;5075201;28;20475;-74
2021/05/28 10:46:58;;;;;;;1.83;1.73;;;17.00;65.30;;;;;;5075262;28;20025;-74
2021/05/28 10:49:47;;;;;;;2.00;1.45;;;16.90;65.10;;;;;;5073777;28;20035;-75
2021/05/28 10:52:33;;;;;;;2.75;1.80;;;17.00;65.20;;;;;;5073299;28;20020;-74
2021/05/28 10:55:06;;;;;;;1.67;1.50;;;17.00;65.40;;;;;;5074813;28;20074;-74
2021/05/28 10:57:34;;;;;;;1.70;1.50;;;17.10;65.50;;;;;;5073285;28;20021;-74
2021/05/28 11:00:07;;;;;;;2.50;2.00;;;17.10;65.20;;;;;;5073617;28;20048;-74
2021/05/28 11:02:52;;;;;;;2.08;1.77;;;17.20;64.60;;;;;;5073598;28;20104;-74
2021/05/28 11:05:38;;;;;;;1.88;1.75;;;17.30;64.40;;;;;;5073588;28;20025;-74
2021/05/28 11:08:04;;;;;;;2.40;1.88;;;17.40;64.20;;;;;;5074919;28;20479;-74
2021/05/28 11:10:33;;;;;;;3.28;1.85;;;17.50;64.30;;;;;;5074835;28;20031;-74
2021/05/28 11:13:15;;;;;;;4.07;2.15;;;17.50;64.30;;;;;;5073289;28;20410;-74
2021/05/28 11:15:54;;;;;;;2.05;1.90;;;17.50;63.70;;;;;;5075075;28;20046;-73
2021/05/28 11:18:28;;;;;;;2.00;1.80;;;17.60;63.60;;;;;;5074538;28;20031;-73
2021/05/28 11:21:14;;;;;;;3.10;1.85;;;17.70;63.30;;;;;;5074384;28;20044;-73
2021/05/28 11:23:48;;;;;;;1.60;1.50;;;17.70;62.80;;;;;;5073494;28;20491;-72
2021/05/28 11:26:23;;;;;;;3.08;1.98;;;17.70;63.50;;;;;;5073730;28;20019;-73
2021/05/28 11:28:55;;;;;;;2.08;1.88;;;17.80;62.50;;;;;;5074536;28;20033;-73
2021/05/28 11:31:24;;;;;;;2.00;1.65;;;17.90;62.50;;;;;;5074431;28;20048;-74
2021/05/28 11:33:58;;;;;;;1.83;1.50;;;17.90;62.40;;;;;;5073143;28;20097;-74
2021/05/28 11:36:27;;;;;;;1.63;1.52;;;18.00;62.10;;;;;;5072856;28;20049;-73
2021/05/28 11:39:01;;;;;;;1.60;1.50;;;18.10;62.20;;;;;;5072752;28;20104;-72
2021/05/28 11:42:04;;;;;;;1.65;1.55;;;18.20;62.10;;;;;;5074338;28;20023;-73
2021/05/28 11:44:32;;;;;;;1.35;1.25;;;18.30;61.70;;;;;;5074074;28;20017;-72
2021/05/28 11:46:59;;;;;;;1.40;1.25;;;18.40;61.80;;;;;;5072757;28;20036;-72
2021/05/28 11:49:25;;;;;;;1.48;1.33;;;18.40;62.10;;;;;;5072684;28;20016;-72
2021/05/28 11:52:12;;;;;;;1.20;1.08;;;18.50;61.40;;;;;;5074225;28;20021;-73
2021/05/28 11:54:38;;;;;;;3.28;1.20;;;18.60;60.50;;;;;;5072767;28;20111;-72
2021/05/28 11:57:12;;;;;;;3.15;1.20;;;18.60;59.70;;;;;;5073895;28;20044;-73
2021/05/28 11:59:56;;;;;;;1.50;1.40;;;18.60;60.10;;;;;;5072766;28;20513;-73
2021/05/28 12:02:57;;;;;;;1.15;1.05;;;18.60;59.70;;;;;;5073527;28;20130;-74
2021/05/28 12:05:32;;;;;;;2.28;1.02;;;18.70;60.00;;;;;;5074094;28;20190;-75
2021/05/28 12:08:14;;;;;;;1.65;1.42;;;18.80;60.10;;;;;;5072698;28;20024;-73
2021/05/28 12:11:00;;;;;;;1.52;1.42;;;18.90;59.70;;;;;;5072594;28;20063;-73
2021/05/28 12:13:44;;;;;;;3.60;1.40;;;19.00;59.60;;;;;;5073583;28;20047;-73
2021/05/28 12:16:14;;;;;;;1.45;1.30;;;19.10;59.30;;;;;;5072633;28;20039;-73
2021/05/28 12:18:48;;;;;;;2.95;1.30;;;19.20;59.20;;;;;;5072720;28;20054;-73
2021/05/28 12:21:17;;;;;;;1.10;1.00;;;19.20;59.10;;;;;;5072966;28;20380;-73
2021/05/28 12:23:44;;;;;;;1.30;1.20;;;19.20;59.10;;;;;;5074201;28;20364;-73
2021/05/28 12:26:30;;;;;;;1.20;1.10;;;19.30;59.10;;;;;;5072619;28;20325;-73
2021/05/28 12:28:57;;;;;;;1.25;1.15;;;19.30;58.60;;;;;;5073623;28;20017;-73
2021/05/28 12:31:27;;;;;;;1.10;1.00;;;19.30;58.60;;;;;;5072393;28;20055;-73
2021/05/28 12:33:56;;;;;;;1.00;0.90;;;19.30;58.20;;;;;;5072152;28;20112;-74
2021/05/28 12:36:30;;;;;;;3.25;1.30;;;19.40;58.20;;;;;;5073394;28;20021;-73
2021/05/28 12:38:56;;;;;;;1.23;1.13;;;19.30;56.50;;;;;;5071821;28;20476;-74
2021/05/28 12:41:27;;;;;;;1.58;1.35;;;19.30;57.10;;;;;;5073370;28;20020;-73
2021/05/28 12:43:54;;;;;;;1.23;1.10;;;19.30;56.80;;;;;;5073158;28;20418;-74
2021/05/28 12:46:34;;;;;;;1.20;1.10;;;19.30;57.20;;;;;;5073214;28;20483;-74
2021/05/28 12:49:03;;;;;;;1.17;0.98;;;19.40;57.80;;;;;;5071702;28;20119;-73
2021/05/28 12:51:29;;;;;;;1.27;1.17;;;19.60;57.30;;;;;;5071834;28;20106;-74
2021/05/28 12:53:55;;;;;;;1.33;1.00;;;19.70;57.10;;;;;;5072975;28;20484;-73
2021/05/28 12:56:23;;;;;;;1.10;0.90;;;19.80;56.90;;;;;;5071957;28;20475;-73
2021/05/28 12:58:51;;;;;;;1.00;0.90;;;19.90;56.80;;;;;;5072656;28;20032;-73